createdAt,value
2017-10-14T00:00:13.367Z,94.40
2017-10-14T00:02:41.944Z,93.90
2017-10-14T00:05:10.194Z,93.60
2017-10-14T00:07:38.446Z,93.50
2017-10-14T00:10:09.617Z,93.70
2017-10-14T00:12:37.864Z,93.60
2017-10-14T00:15:06.874Z,94.80
2017-10-14T00:17:35.146Z,94.80
2017-10-14T00:20:03.394Z,95.10
2017-10-14T00:22:31.637Z,94.30
2017-10-14T00:25:00.232Z,94.10
2017-10-14T00:27:28.474Z,95.80
2017-10-14T00:29:56.723Z,94.50
2017-10-14T00:32:25.754Z,94.70
2017-10-14T00:34:53.994Z,94.60
2017-10-14T00:37:23.434Z,94.60
2017-10-14T00:39:51.710Z,94.60
2017-10-14T00:42:19.958Z,94.60
2017-10-14T00:44:48.978Z,94.40
2017-10-14T00:47:17.337Z,94.40
2017-10-14T00:49:46.347Z,94.50
2017-10-14T00:52:14.599Z,94.50
2017-10-14T00:54:42.875Z,94.30
2017-10-14T00:57:11.896Z,94.40
2017-10-14T00:59:40.147Z,94.30
2017-10-14T01:02:08.430Z,94.10
2017-10-14T01:04:36.686Z,94.70
2017-10-14T01:07:04.934Z,94.50
2017-10-14T01:09:33.502Z,94.60
2017-10-14T01:12:01.760Z,95.00
2017-10-14T01:14:30.009Z,94.50
2017-10-14T01:16:58.285Z,94.50
2017-10-14T01:19:27.322Z,94.80
2017-10-14T01:21:55.570Z,94.70
2017-10-14T01:24:23.846Z,94.50
2017-10-14T01:26:52.098Z,94.90
2017-10-14T01:29:20.350Z,94.60
2017-10-14T01:31:48.914Z,94.70
2017-10-14T01:34:17.169Z,94.80
2017-10-14T01:36:45.418Z,95.00
2017-10-14T01:39:14.345Z,94.70
2017-10-14T01:41:42.595Z,95.20
2017-10-14T01:44:11.610Z,95.10
2017-10-14T01:46:39.885Z,95.10
2017-10-14T01:49:08.141Z,95.30
2017-10-14T01:51:37.158Z,95.10
2017-10-14T01:54:05.515Z,95.10
2017-10-14T01:56:34.538Z,95.10
2017-10-14T01:59:02.786Z,95.10
2017-10-14T02:01:31.059Z,95.00
2017-10-14T02:03:59.306Z,95.20
2017-10-14T02:06:27.555Z,94.90
2017-10-14T02:08:57.011Z,95.00
2017-10-14T02:11:26.018Z,95.60
2017-10-14T02:13:54.267Z,95.50
2017-10-14T02:16:22.718Z,95.20
2017-10-14T02:18:50.971Z,95.10
2017-10-14T02:21:19.222Z,95.90
2017-10-14T02:23:48.247Z,96.70
2017-10-14T02:26:16.495Z,96.70
2017-10-14T02:28:45.502Z,95.90
2017-10-14T02:31:13.771Z,95.90
2017-10-14T02:33:42.783Z,95.70
2017-10-14T02:36:11.022Z,95.70
2017-10-14T02:38:39.767Z,95.50
2017-10-14T02:41:08.406Z,95.30
2017-10-14T02:43:37.425Z,95.80
2017-10-14T02:46:05.690Z,95.80
2017-10-14T02:48:33.941Z,95.70
2017-10-14T02:51:02.189Z,95.70
2017-10-14T02:53:30.634Z,95.80
2017-10-14T02:55:58.870Z,95.70
2017-10-14T02:58:27.110Z,95.70
2017-10-14T03:00:55.422Z,95.70
2017-10-14T03:03:23.671Z,95.60
2017-10-14T03:05:52.067Z,95.70
2017-10-14T03:08:20.355Z,95.30
2017-10-14T03:10:48.829Z,95.80
2017-10-14T03:13:17.066Z,95.40
2017-10-14T03:15:45.326Z,95.40
2017-10-14T03:18:13.579Z,95.70
2017-10-14T03:20:42.593Z,95.40
2017-10-14T03:23:11.193Z,95.30
2017-10-14T03:25:39.430Z,95.20
2017-10-14T03:28:08.438Z,95.30
2017-10-14T03:30:37.473Z,95.20
2017-10-14T03:33:05.711Z,95.20
2017-10-14T03:35:33.966Z,95.90
2017-10-14T03:38:02.235Z,95.30
2017-10-14T03:40:30.490Z,96.40
2017-10-14T03:42:58.861Z,96.50
2017-10-14T03:45:27.535Z,95.40
2017-10-14T03:47:55.774Z,95.50
2017-10-14T03:50:24.781Z,95.50
2017-10-14T03:52:53.071Z,95.50
2017-10-14T03:55:21.318Z,95.50
2017-10-14T03:57:50.340Z,95.40
2017-10-14T04:00:18.610Z,95.40
2017-10-14T04:02:46.855Z,95.60
2017-10-14T04:05:15.875Z,95.40
2017-10-14T04:07:44.486Z,95.40
2017-10-14T04:10:12.738Z,95.60
2017-10-14T04:12:40.978Z,95.80
2017-10-14T04:15:09.246Z,95.50
2017-10-14T04:17:37.494Z,95.50
2017-10-14T04:20:05.747Z,95.40
2017-10-14T04:22:34.013Z,95.10
2017-10-14T04:25:02.259Z,95.30
2017-10-14T04:27:30.503Z,95.50
2017-10-14T04:29:59.097Z,95.40
2017-10-14T04:32:27.331Z,95.50
2017-10-14T04:34:55.571Z,95.50
2017-10-14T04:37:23.836Z,95.20
2017-10-14T04:39:52.091Z,95.30
2017-10-14T04:42:20.339Z,95.20
2017-10-14T04:44:49.566Z,95.30
2017-10-14T04:47:17.806Z,95.30
2017-10-14T04:49:46.050Z,95.40
2017-10-14T04:52:14.430Z,95.00
2017-10-14T04:54:42.680Z,95.10
2017-10-14T04:57:10.923Z,95.10
2017-10-14T04:59:39.229Z,94.80
2017-10-14T05:02:07.513Z,94.90
2017-10-14T05:04:35.755Z,94.80
2017-10-14T05:07:04.053Z,94.80
2017-10-14T05:09:32.352Z,94.80
2017-10-14T05:12:00.582Z,94.60
2017-10-14T05:14:28.996Z,94.80
2017-10-14T05:16:58.006Z,94.60
2017-10-14T05:19:26.253Z,94.50
2017-10-14T05:21:54.543Z,94.60
2017-10-14T05:24:22.770Z,94.60
2017-10-14T05:26:51.018Z,94.80
2017-10-14T05:29:19.290Z,95.10
2017-10-14T05:31:47.539Z,94.90
2017-10-14T05:34:15.780Z,95.00
2017-10-14T05:36:44.904Z,94.80
2017-10-14T05:39:13.144Z,94.70
2017-10-14T05:41:42.160Z,94.80
2017-10-14T05:44:10.426Z,94.80
2017-10-14T05:46:38.995Z,94.80
2017-10-14T05:49:07.998Z,94.80
2017-10-14T05:51:36.268Z,94.70
2017-10-14T05:54:05.286Z,95.20
2017-10-14T05:56:33.530Z,95.20
2017-10-14T05:59:02.222Z,94.90
2017-10-14T06:01:30.475Z,94.90
2017-10-14T06:03:58.718Z,94.90
2017-10-14T06:06:26.998Z,94.90
2017-10-14T06:08:55.247Z,94.80
2017-10-14T06:11:23.503Z,94.90
2017-10-14T06:13:51.782Z,94.60
2017-10-14T06:16:20.800Z,94.70
2017-10-14T06:18:49.051Z,94.60
2017-10-14T06:21:18.503Z,94.50
2017-10-14T06:23:46.754Z,94.40
2017-10-14T06:26:15.072Z,94.50
2017-10-14T06:28:43.339Z,94.50
2017-10-14T06:31:11.582Z,94.40
2017-10-14T06:33:39.830Z,94.40
2017-10-14T06:36:08.098Z,94.30
2017-10-14T06:38:36.346Z,94.20
2017-10-14T06:41:04.590Z,94.20
2017-10-14T06:43:33.186Z,93.90
2017-10-14T06:46:01.430Z,94.00
2017-10-14T06:48:29.868Z,94.10
2017-10-14T06:50:58.130Z,94.00
2017-10-14T06:53:26.382Z,93.90
2017-10-14T06:55:54.638Z,94.10
2017-10-14T06:58:22.910Z,94.00
2017-10-14T07:00:51.927Z,94.10
2017-10-14T07:03:20.302Z,93.70
2017-10-14T07:05:49.019Z,93.70
2017-10-14T07:08:17.266Z,93.50
2017-10-14T07:10:45.524Z,93.50
2017-10-14T07:13:13.810Z,93.60
2017-10-14T07:15:42.834Z,93.60
2017-10-14T07:18:11.082Z,93.60
2017-10-14T07:20:40.113Z,93.10
2017-10-14T07:23:08.370Z,93.10
2017-10-14T07:25:36.633Z,92.50
2017-10-14T07:28:05.703Z,93.40
2017-10-14T07:30:33.994Z,93.20
2017-10-14T07:33:02.244Z,93.10
2017-10-14T07:35:30.750Z,92.90
2017-10-14T07:37:59.794Z,93.20
2017-10-14T07:40:28.060Z,93.10
2017-10-14T07:42:56.328Z,93.10
2017-10-14T07:45:24.579Z,93.20
2017-10-14T07:47:53.597Z,93.20
2017-10-14T07:50:22.611Z,93.20
2017-10-14T07:52:50.863Z,92.40
2017-10-14T07:55:19.114Z,92.40
2017-10-14T07:57:47.386Z,92.50
2017-10-14T08:00:16.394Z,92.30
2017-10-14T08:02:45.411Z,92.40
2017-10-14T08:05:13.675Z,92.40
2017-10-14T08:07:42.109Z,91.50
2017-10-14T08:10:10.490Z,91.50
2017-10-14T08:12:38.815Z,91.70
2017-10-14T08:15:07.089Z,91.60
2017-10-14T08:17:35.341Z,91.70
2017-10-14T08:20:04.379Z,92.50
2017-10-14T08:22:32.618Z,92.40
2017-10-14T08:25:01.700Z,90.80
2017-10-14T08:27:29.978Z,90.80
2017-10-14T08:29:58.228Z,90.20
2017-10-14T08:32:26.471Z,91.00
2017-10-14T08:34:54.971Z,91.10
2017-10-14T08:37:23.233Z,90.00
2017-10-14T08:39:51.479Z,90.90
2017-10-14T08:42:19.753Z,90.00
2017-10-14T08:44:48.784Z,89.20
2017-10-14T08:47:17.028Z,89.20
2017-10-14T08:49:46.098Z,88.90
2017-10-14T08:52:14.353Z,88.90
2017-10-14T08:54:42.610Z,90.10
2017-10-14T08:57:10.934Z,90.00
2017-10-14T08:59:39.186Z,90.20
2017-10-14T09:02:07.429Z,90.00
2017-10-14T09:04:35.705Z,90.40
2017-10-14T09:07:03.946Z,89.50
2017-10-14T09:09:32.194Z,90.10
2017-10-14T09:12:00.474Z,88.90
2017-10-14T09:14:28.734Z,89.30
2017-10-14T09:16:56.978Z,89.00
2017-10-14T09:19:25.314Z,89.80
2017-10-14T09:21:53.571Z,90.00
2017-10-14T09:24:21.819Z,89.10
2017-10-14T09:26:50.114Z,89.00
2017-10-14T09:29:18.370Z,89.80
2017-10-14T09:31:46.627Z,90.00
2017-10-14T09:34:14.903Z,89.40
2017-10-14T09:36:43.926Z,88.40
2017-10-14T09:39:12.171Z,88.20
2017-10-14T09:41:41.889Z,87.50
2017-10-14T09:44:10.890Z,81.10
2017-10-14T09:46:39.150Z,80.80
2017-10-14T09:49:08.186Z,74.30
2017-10-14T09:51:36.835Z,73.90
2017-10-14T09:54:05.862Z,64.70
2017-10-14T09:56:34.130Z,64.90
2017-10-14T09:59:02.370Z,59.00
2017-10-14T10:01:30.622Z,61.00
2017-10-14T10:03:59.339Z,62.80
2017-10-14T10:06:28.352Z,60.10
2017-10-14T10:08:56.610Z,59.80
2017-10-14T10:11:24.885Z,60.00
2017-10-14T10:13:53.906Z,57.90
2017-10-14T10:16:22.158Z,57.90
2017-10-14T10:18:51.186Z,52.20
2017-10-14T10:21:19.696Z,52.10
2017-10-14T10:23:47.918Z,53.30
2017-10-14T10:26:17.014Z,56.30
2017-10-14T10:28:45.255Z,56.20
2017-10-14T10:31:13.499Z,53.30
2017-10-14T10:33:41.775Z,53.00
2017-10-14T10:36:10.083Z,54.10
2017-10-14T10:38:38.330Z,53.90
2017-10-14T10:41:06.594Z,44.90
2017-10-14T10:43:34.834Z,45.60
2017-10-14T10:46:03.075Z,50.30
2017-10-14T10:48:31.630Z,43.20
2017-10-14T10:50:59.895Z,47.10
2017-10-14T10:53:28.918Z,48.40
2017-10-14T10:55:57.558Z,48.40
2017-10-14T10:58:27.111Z,47.70
2017-10-14T11:00:56.446Z,46.20
2017-10-14T11:03:24.908Z,46.30
2017-10-14T11:05:54.319Z,42.50
2017-10-14T11:08:22.694Z,44.60
2017-10-14T11:10:51.463Z,44.90
2017-10-14T11:13:19.762Z,46.40
2017-10-14T11:15:50.211Z,45.30
2017-10-14T11:18:18.479Z,42.80
2017-10-14T11:20:46.719Z,43.10
2017-10-14T11:23:14.975Z,44.10
2017-10-14T11:25:44.451Z,43.50
2017-10-14T11:28:13.466Z,41.20
2017-10-14T11:30:41.714Z,40.70
2017-10-14T11:33:10.560Z,41.40
2017-10-14T11:35:38.862Z,42.30
2017-10-14T11:38:07.343Z,39.70
2017-10-14T11:40:35.642Z,39.40
2017-10-14T11:43:04.664Z,41.30
2017-10-14T11:45:34.838Z,37.00
2017-10-14T11:48:04.230Z,37.20
2017-10-14T11:50:32.518Z,39.30
2017-10-14T11:53:01.207Z,38.80
2017-10-14T11:55:29.674Z,38.30
2017-10-14T11:57:57.966Z,35.10
2017-10-14T12:00:26.500Z,36.60
2017-10-14T12:02:54.758Z,36.60
2017-10-14T12:05:24.949Z,34.70
2017-10-14T12:07:53.363Z,35.30
2017-10-14T12:10:22.060Z,35.80
2017-10-14T12:12:52.550Z,39.00
2017-10-14T12:15:20.932Z,38.90
2017-10-14T12:17:49.375Z,36.50
2017-10-14T12:20:17.782Z,35.20
2017-10-14T12:22:46.059Z,32.80
2017-10-14T12:25:14.541Z,35.60
2017-10-14T12:27:42.824Z,38.60
2017-10-14T12:30:11.281Z,36.60
2017-10-14T12:32:39.674Z,38.10
2017-10-14T12:35:08.864Z,34.70
2017-10-14T12:37:37.290Z,32.50
2017-10-14T12:40:06.736Z,35.50
2017-10-14T12:42:34.994Z,35.60
2017-10-14T12:45:03.303Z,36.30
2017-10-14T12:47:31.723Z,35.60
2017-10-14T12:50:02.829Z,29.90
2017-10-14T12:52:31.210Z,29.80
2017-10-14T12:54:59.617Z,32.60
2017-10-14T12:57:29.807Z,35.40
2017-10-14T12:59:58.246Z,35.40
2017-10-14T13:02:27.729Z,32.60
2017-10-14T13:04:56.239Z,32.60
2017-10-14T13:07:24.559Z,33.90
2017-10-14T13:09:53.938Z,34.40
2017-10-14T13:12:24.394Z,33.80
2017-10-14T13:14:53.692Z,30.80
2017-10-14T13:17:25.065Z,30.30
2017-10-14T13:19:53.679Z,31.20
2017-10-14T13:22:22.007Z,30.70
2017-10-14T13:24:50.468Z,29.70
2017-10-14T13:27:18.711Z,31.00
2017-10-14T13:29:47.074Z,31.80
2017-10-14T13:32:16.173Z,32.50
2017-10-14T13:34:44.478Z,32.50
2017-10-14T13:37:12.794Z,31.60
2017-10-14T13:39:41.314Z,31.00
2017-10-14T13:42:10.951Z,30.00
2017-10-14T13:44:39.227Z,28.00
2017-10-14T13:47:10.707Z,28.10
2017-10-14T13:49:38.995Z,29.80
2017-10-14T13:52:07.366Z,28.80
2017-10-14T13:54:36.435Z,31.70
2017-10-14T13:57:04.764Z,30.50
2017-10-14T13:59:33.109Z,29.20
2017-10-14T14:02:01.530Z,29.20
2017-10-14T14:04:31.782Z,30.00
2017-10-14T14:07:00.904Z,29.90
2017-10-14T14:09:29.492Z,31.00
2017-10-14T14:11:58.280Z,28.60
2017-10-14T14:14:28.000Z,30.30
2017-10-14T14:16:56.401Z,30.90
2017-10-14T14:19:24.749Z,30.90
2017-10-14T14:21:53.157Z,28.80
2017-10-14T14:24:21.715Z,30.40
2017-10-14T14:26:50.242Z,32.80
2017-10-14T14:29:19.538Z,29.40
2017-10-14T14:31:50.026Z,29.10
2017-10-14T14:34:18.833Z,29.00
2017-10-14T14:36:48.027Z,28.20
2017-10-14T14:39:16.442Z,29.10
2017-10-14T14:41:46.422Z,29.60
2017-10-14T14:44:15.214Z,30.50
2017-10-14T14:46:43.703Z,30.30
2017-10-14T14:49:13.024Z,29.20
2017-10-14T14:51:43.234Z,30.40
2017-10-14T14:54:11.934Z,30.40
2017-10-14T14:56:41.508Z,28.90
2017-10-14T14:59:10.292Z,28.80
2017-10-14T15:01:38.768Z,30.90
2017-10-14T15:04:07.152Z,30.40
2017-10-14T15:06:37.182Z,30.70
2017-10-14T15:09:09.563Z,30.00
2017-10-14T15:11:38.847Z,30.70
2017-10-14T15:14:07.239Z,32.00
2017-10-14T15:16:35.803Z,33.60
2017-10-14T15:19:04.067Z,32.30
2017-10-14T15:21:32.605Z,32.00
2017-10-14T15:24:01.071Z,31.00
2017-10-14T15:26:30.679Z,30.70
2017-10-14T15:28:59.970Z,33.80
2017-10-14T15:31:28.414Z,33.60
2017-10-14T15:33:56.746Z,32.20
2017-10-14T15:36:25.778Z,33.90
2017-10-14T15:38:56.432Z,33.80
2017-10-14T15:41:25.861Z,35.00
2017-10-14T15:43:54.238Z,36.70
2017-10-14T15:46:23.554Z,37.60
2017-10-14T15:48:52.855Z,38.60
2017-10-14T15:51:21.222Z,38.40
2017-10-14T15:53:49.610Z,39.40
2017-10-14T15:56:18.882Z,40.60
2017-10-14T15:58:47.134Z,40.30
2017-10-14T16:01:18.514Z,40.90
2017-10-14T16:03:47.099Z,41.10
2017-10-14T16:06:16.427Z,40.90
2017-10-14T16:08:46.659Z,41.70
2017-10-14T16:11:18.060Z,41.90
2017-10-14T16:13:46.464Z,41.90
2017-10-14T16:16:14.886Z,42.00
2017-10-14T16:18:43.241Z,42.40
2017-10-14T16:21:12.819Z,42.80
2017-10-14T16:23:41.310Z,42.80
2017-10-14T16:26:11.724Z,43.90
2017-10-14T16:28:40.224Z,44.10
2017-10-14T16:31:10.669Z,44.30
2017-10-14T16:33:39.692Z,44.90
2017-10-14T16:36:08.970Z,44.90
2017-10-14T16:38:37.342Z,45.50
2017-10-14T16:41:09.409Z,46.00
2017-10-14T16:43:38.751Z,46.30
2017-10-14T16:46:08.026Z,46.30
2017-10-14T16:48:36.351Z,46.00
2017-10-14T16:51:04.795Z,46.80
2017-10-14T16:53:36.191Z,47.40
2017-10-14T16:56:04.566Z,47.10
2017-10-14T16:58:32.971Z,47.00
2017-10-14T17:01:01.993Z,47.60
2017-10-14T17:03:30.514Z,47.60
2017-10-14T17:06:00.326Z,47.80
2017-10-14T17:08:28.626Z,48.40
2017-10-14T17:10:57.659Z,48.60
2017-10-14T17:13:35.194Z,48.70
2017-10-14T17:16:03.585Z,48.90
2017-10-14T17:18:32.881Z,49.00
2017-10-14T17:21:01.332Z,49.30
2017-10-14T17:23:29.640Z,50.20
2017-10-14T17:25:58.020Z,49.50
2017-10-14T17:28:30.413Z,49.50
2017-10-14T17:31:00.642Z,50.50
2017-10-14T17:33:30.866Z,50.00
2017-10-14T17:36:00.021Z,51.10
2017-10-14T17:38:28.299Z,51.10
2017-10-14T17:40:59.335Z,50.60
2017-10-14T17:43:31.729Z,50.70
2017-10-14T17:46:00.293Z,52.50
2017-10-14T17:48:29.901Z,51.80
2017-10-14T17:50:58.161Z,52.00
2017-10-14T17:53:28.730Z,52.30
2017-10-14T17:55:57.044Z,52.40
2017-10-14T17:58:25.374Z,52.80
2017-10-14T18:00:54.143Z,52.30
2017-10-14T18:03:22.506Z,53.90
2017-10-14T18:05:50.818Z,53.90
2017-10-14T18:08:19.222Z,53.50
2017-10-14T18:10:48.575Z,54.80
2017-10-14T18:13:16.964Z,55.30
2017-10-14T18:15:46.252Z,53.90
2017-10-14T18:18:15.482Z,55.00
2017-10-14T18:20:43.863Z,54.90
2017-10-14T18:23:12.351Z,54.80
2017-10-14T18:25:41.530Z,55.10
2017-10-14T18:28:11.559Z,55.20
2017-10-14T18:30:44.947Z,57.30
2017-10-14T18:33:20.630Z,56.50
2017-10-14T18:35:53.479Z,57.80
2017-10-14T18:38:21.866Z,56.80
2017-10-14T18:40:50.278Z,58.00
2017-10-14T18:43:19.370Z,58.40
2017-10-14T18:45:49.978Z,58.30
2017-10-14T18:48:18.233Z,58.60
2017-10-14T18:50:46.559Z,58.70
2017-10-14T18:53:16.759Z,58.70
2017-10-14T18:55:45.677Z,58.60
2017-10-14T18:58:14.211Z,59.60
2017-10-14T19:00:44.658Z,61.50
2017-10-14T19:03:13.038Z,59.00
2017-10-14T19:05:42.547Z,59.20
2017-10-14T19:08:11.014Z,60.20
2017-10-14T19:10:39.410Z,60.40
2017-10-14T19:13:08.731Z,60.50
2017-10-14T19:15:38.922Z,60.80
2017-10-14T19:18:07.516Z,60.60
2017-10-14T19:20:37.306Z,59.70
2017-10-14T19:23:05.598Z,60.20
2017-10-14T19:25:33.978Z,61.20
2017-10-14T19:28:06.474Z,61.40
2017-10-14T19:30:34.744Z,60.20
2017-10-14T19:33:03.781Z,60.50
2017-10-14T19:35:32.126Z,60.30
2017-10-14T19:38:02.334Z,64.60
2017-10-14T19:40:30.693Z,64.70
2017-10-14T19:42:59.112Z,61.30
2017-10-14T19:45:32.390Z,62.30
2017-10-14T19:48:00.946Z,62.10
2017-10-14T19:50:29.261Z,61.50
2017-10-14T19:52:58.542Z,61.50
2017-10-14T19:55:26.842Z,61.60
2017-10-14T19:57:57.058Z,62.30
2017-10-14T20:00:26.345Z,62.30
2017-10-14T20:02:55.855Z,64.10
2017-10-14T20:05:24.327Z,63.90
2017-10-14T20:07:53.642Z,63.60
2017-10-14T20:10:22.090Z,65.10
2017-10-14T20:12:50.379Z,65.70
2017-10-14T20:15:18.785Z,64.40
2017-10-14T20:17:47.842Z,64.00
2017-10-14T20:20:24.899Z,63.80
2017-10-14T20:22:56.211Z,63.80
2017-10-14T20:25:25.234Z,64.00
2017-10-14T20:27:53.558Z,64.10
2017-10-14T20:30:22.319Z,66.70
2017-10-14T20:32:52.805Z,64.40
2017-10-14T20:35:23.083Z,64.30
2017-10-14T20:37:54.541Z,64.20
2017-10-14T20:40:22.917Z,63.50
2017-10-14T20:42:53.658Z,63.90
2017-10-14T20:45:22.127Z,65.60
2017-10-14T20:47:50.430Z,68.60
2017-10-14T20:50:24.846Z,66.70
2017-10-14T20:52:53.337Z,66.00
2017-10-14T20:55:21.774Z,67.90
2017-10-14T20:57:50.103Z,68.00
2017-10-14T21:00:19.130Z,66.40
2017-10-14T21:02:48.513Z,66.40
2017-10-14T21:05:17.292Z,67.10
2017-10-14T21:07:45.762Z,67.40
2017-10-14T21:10:15.050Z,68.90
2017-10-14T21:12:43.535Z,68.20
2017-10-14T21:15:12.726Z,68.20
2017-10-14T21:17:41.114Z,68.70
2017-10-14T21:20:09.519Z,69.30
2017-10-14T21:22:39.781Z,69.80
2017-10-14T21:25:08.093Z,69.70
2017-10-14T21:27:36.536Z,69.40
2017-10-14T21:30:04.845Z,69.40
2017-10-14T21:32:33.231Z,70.50
2017-10-14T21:35:01.847Z,69.80
2017-10-14T21:37:30.295Z,70.80
2017-10-14T21:39:58.661Z,72.60
2017-10-14T21:42:27.111Z,72.80
2017-10-14T21:44:57.626Z,71.30
2017-10-14T21:47:25.958Z,69.70
2017-10-14T21:49:54.389Z,69.90
2017-10-14T21:52:22.719Z,70.90
2017-10-14T21:54:51.099Z,71.20
2017-10-14T21:57:20.534Z,72.10
2017-10-14T21:59:50.034Z,73.40
2017-10-14T22:02:19.068Z,72.40
2017-10-14T22:04:47.334Z,72.30
2017-10-14T22:07:15.641Z,72.30
2017-10-14T22:12:19.308Z,72.50
2017-10-14T22:14:48.322Z,71.40
2017-10-14T22:17:16.643Z,71.40
2017-10-14T22:19:45.370Z,70.80
2017-10-14T22:22:14.382Z,71.70
2017-10-14T22:24:42.630Z,71.80
2017-10-14T22:27:11.674Z,73.00
2017-10-14T22:29:39.923Z,73.40
2017-10-14T22:32:08.173Z,79.90
2017-10-14T22:34:36.437Z,73.90
2017-10-14T22:37:04.690Z,84.30
2017-10-14T22:39:32.967Z,83.40
2017-10-14T22:42:01.499Z,79.20
2017-10-14T22:44:29.758Z,78.50
2017-10-14T22:46:58.769Z,76.50
2017-10-14T22:49:27.046Z,76.50
2017-10-14T22:51:55.298Z,74.10
2017-10-14T22:54:23.549Z,77.00
2017-10-14T22:56:51.825Z,75.30
2017-10-14T22:59:20.070Z,73.80
2017-10-14T23:01:48.318Z,75.30
2017-10-14T23:04:16.838Z,75.70
2017-10-14T23:06:45.078Z,76.00
2017-10-14T23:09:13.670Z,76.50
2017-10-14T23:11:43.166Z,78.00
2017-10-14T23:14:11.414Z,77.70
2017-10-14T23:16:39.672Z,76.60
2017-10-14T23:19:07.939Z,75.40
2017-10-14T23:21:36.190Z,74.40
2017-10-14T23:24:04.442Z,76.60
2017-10-14T23:26:33.790Z,76.70
2017-10-14T23:29:02.038Z,76.50
2017-10-14T23:31:30.287Z,76.00
2017-10-14T23:33:58.554Z,74.80
2017-10-14T23:36:26.794Z,77.70
2017-10-14T23:38:55.050Z,75.40
2017-10-14T23:41:23.322Z,74.70
2017-10-14T23:43:51.581Z,75.70
2017-10-14T23:46:19.830Z,75.10
2017-10-14T23:48:48.239Z,75.30
2017-10-14T23:51:16.495Z,75.90
2017-10-14T23:53:44.738Z,77.30
2017-10-14T23:56:15.306Z,77.60
2017-10-14T23:58:43.568Z,76.40
